Time;durP1;ratioP1;P1;durP2;ratioP2;P2;SDS_P1;SDS_P2;PMS_P1;PMS_P2;Temp;Humidity;BMP_temperature;BMP_pressure;BME280_temperature;BME280_humidity;BME280_pressure;Samples;Min_cycle;Max_cycle;Signal;HPM_P1;HPM_P2
2021/08/31 00:00:49;;;;;;;13.30;8.77;;;22.40;64.70;;;;;;5022165;28;20201;-49
2021/08/31 00:03:16;;;;;;;10.20;9.20;;;22.40;64.90;;;;;;5020307;28;20252;-46
2021/08/31 00:05:41;;;;;;;10.20;9.23;;;22.50;64.90;;;;;;5015080;28;20197;-46
2021/08/31 00:08:07;;;;;;;9.00;8.20;;;22.50;64.80;;;;;;5012481;28;20443;-49
2021/08/31 00:10:34;;;;;;;10.33;8.33;;;22.50;64.60;;;;;;5018824;28;20228;-48
2021/08/31 00:13:00;;;;;;;8.87;7.63;;;22.40;64.40;;;;;;5017263;28;20200;-48
2021/08/31 00:15:25;;;;;;;7.60;6.80;;;22.30;64.40;;;;;;5033095;28;20449;-46
2021/08/31 00:17:51;;;;;;;8.67;7.20;;;22.30;64.40;;;;;;5017535;28;20758;-49
2021/08/31 00:20:16;;;;;;;9.40;8.50;;;22.30;64.40;;;;;;5019667;28;20202;-46
2021/08/31 00:22:42;;;;;;;8.70;7.90;;;22.30;64.20;;;;;;5017962;28;20273;-45
2021/08/31 00:25:08;;;;;;;10.63;7.77;;;22.20;64.00;;;;;;5017961;28;20308;-47
2021/08/31 00:27:34;;;;;;;8.17;7.37;;;22.10;64.40;;;;;;5018571;28;20260;-49
2021/08/31 00:30:00;;;;;;;8.17;6.90;;;22.10;64.70;;;;;;5019424;28;22224;-48
2021/08/31 00:32:26;;;;;;;7.13;6.57;;;22.10;64.70;;;;;;5019946;28;20452;-46
2021/08/31 00:34:51;;;;;;;8.20;7.47;;;22.10;64.60;;;;;;5017977;28;20235;-50
2021/08/31 00:37:17;;;;;;;11.43;7.67;;;22.10;64.40;;;;;;5016487;28;20200;-49
2021/08/31 00:39:43;;;;;;;7.97;6.60;;;22.10;64.40;;;;;;5015109;28;20206;-46
2021/08/31 00:42:08;;;;;;;8.50;7.60;;;22.10;64.60;;;;;;5021093;28;21929;-46
2021/08/31 00:44:34;;;;;;;8.43;7.63;;;22.00;64.40;;;;;;5013233;28;20237;-48
2021/08/31 00:47:03;;;;;;;8.47;7.67;;;22.00;64.40;;;;;;5014629;28;20289;-47
2021/08/31 00:49:32;;;;;;;8.90;8.10;;;22.00;64.50;;;;;;5015673;28;20200;-48
2021/08/31 00:51:59;;;;;;;8.67;7.87;;;22.00;64.40;;;;;;5013779;28;20451;-50
2021/08/31 00:54:27;;;;;;;11.40;8.63;;;21.90;64.50;;;;;;5014781;28;20456;-46
2021/08/31 00:56:52;;;;;;;8.60;7.30;;;21.90;64.40;;;;;;5016745;28;20436;-50
2021/08/31 00:59:19;;;;;;;8.90;6.93;;;21.90;64.60;;;;;;5016581;28;20935;-47
2021/08/31 01:01:46;;;;;;;8.07;7.30;;;21.90;64.30;;;;;;5016054;28;20263;-46
2021/08/31 01:04:11;;;;;;;8.67;7.87;;;21.90;64.40;;;;;;5012756;28;20496;-49
2021/08/31 01:06:38;;;;;;;8.40;7.60;;;21.90;64.40;;;;;;5017175;28;20463;-48
2021/08/31 01:09:03;;;;;;;8.97;8.07;;;21.90;64.50;;;;;;5016082;28;20194;-45
2021/08/31 01:11:29;;;;;;;9.17;8.27;;;21.80;64.60;;;;;;5016792;28;20436;-45
2021/08/31 01:13:55;;;;;;;8.63;7.63;;;21.80;64.70;;;;;;5018523;28;20201;-48
2021/08/31 01:16:21;;;;;;;8.60;7.70;;;21.80;64.60;;;;;;5016446;28;21917;-50
2021/08/31 01:18:46;;;;;;;8.63;7.83;;;21.80;64.80;;;;;;5013651;28;20469;-46
2021/08/31 01:21:12;;;;;;;9.73;8.90;;;21.80;64.90;;;;;;5015809;28;20225;-49
2021/08/31 01:23:38;;;;;;;11.20;7.50;;;21.70;64.80;;;;;;5019289;28;20319;-45
2021/08/31 01:26:04;;;;;;;9.77;8.77;;;21.70;65.20;;;;;;5014925;28;20205;-47
2021/08/31 01:28:32;;;;;;;9.00;8.10;;;21.70;65.00;;;;;;5019319;28;20898;-49
2021/08/31 01:30:59;;;;;;;9.67;8.67;;;21.70;65.30;;;;;;5012676;28;20459;-50
2021/08/31 01:33:28;;;;;;;8.93;8.13;;;21.70;65.50;;;;;;5014305;28;20528;-49
2021/08/31 01:35:54;;;;;;;9.03;7.90;;;21.80;65.40;;;;;;5013200;28;20544;-45
2021/08/31 01:38:20;;;;;;;9.70;8.77;;;21.80;65.20;;;;;;5014001;28;21118;-49
2021/08/31 01:40:46;;;;;;;10.03;8.53;;;21.70;65.40;;;;;;5016583;28;20301;-47
2021/08/31 01:43:23;;;;;;;9.43;8.13;;;21.70;65.50;;;;;;5016723;28;20590;-46
2021/08/31 01:45:49;;;;;;;8.70;8.00;;;21.80;65.80;;;;;;5014899;28;20198;-47
2021/08/31 01:48:15;;;;;;;9.87;8.87;;;21.70;65.60;;;;;;5015390;28;20871;-47
2021/08/31 01:50:41;;;;;;;10.00;9.00;;;21.70;65.50;;;;;;5016574;28;20560;-46
2021/08/31 01:53:07;;;;;;;9.20;8.20;;;21.70;65.40;;;;;;5017451;28;20252;-48
2021/08/31 01:55:33;;;;;;;11.67;8.83;;;21.70;65.50;;;;;;5018024;28;20276;-46
2021/08/31 01:57:59;;;;;;;9.33;8.33;;;21.80;65.60;;;;;;5009224;28;22163;-47
2021/08/31 02:00:25;;;;;;;8.20;7.40;;;21.80;65.50;;;;;;5010917;28;20499;-47
2021/08/31 02:02:51;;;;;;;8.93;7.20;;;21.80;65.70;;;;;;5018389;28;20484;-47
2021/08/31 02:05:17;;;;;;;8.37;7.67;;;21.90;65.80;;;;;;5019264;28;20692;-48
2021/08/31 02:07:42;;;;;;;11.33;8.43;;;22.00;65.70;;;;;;5017046;28;20436;-46
2021/08/31 02:10:09;;;;;;;9.87;8.97;;;22.00;65.40;;;;;;5014969;28;20561;-46
2021/08/31 02:12:34;;;;;;;9.90;9.00;;;22.00;64.50;;;;;;5016808;28;20194;-46
2021/08/31 02:15:00;;;;;;;10.00;8.60;;;22.00;64.70;;;;;;5017304;28;20509;-45
2021/08/31 02:17:25;;;;;;;9.37;8.50;;;22.00;64.80;;;;;;5020221;28;20196;-49
2021/08/31 02:19:51;;;;;;;9.50;8.50;;;22.00;64.70;;;;;;5017007;28;20530;-50
2021/08/31 02:22:17;;;;;;;9.13;8.23;;;22.00;64.80;;;;;;5013237;28;21881;-50
2021/08/31 02:24:43;;;;;;;12.70;8.50;;;22.10;64.70;;;;;;5016213;28;20948;-50
2021/08/31 02:27:09;;;;;;;8.67;7.97;;;22.10;64.50;;;;;;5011799;28;20204;-47
2021/08/31 02:29:34;;;;;;;10.27;9.07;;;22.10;64.40;;;;;;5015318;28;20604;-50
2021/08/31 02:32:00;;;;;;;10.63;9.63;;;22.10;64.40;;;;;;5013402;28;20447;-49
2021/08/31 02:34:26;;;;;;;10.20;8.90;;;22.10;64.10;;;;;;5016227;28;20444;-50
2021/08/31 02:36:51;;;;;;;8.50;7.70;;;22.10;64.10;;;;;;5012494;28;20194;-48
2021/08/31 02:39:17;;;;;;;11.20;9.97;;;22.10;64.00;;;;;;5015075;28;20539;-50
2021/08/31 02:41:43;;;;;;;9.83;8.00;;;22.10;64.10;;;;;;5014295;28;20714;-49
2021/08/31 02:44:08;;;;;;;9.07;8.13;;;22.10;64.20;;;;;;5014721;28;20283;-48
2021/08/31 02:46:34;;;;;;;8.10;7.30;;;22.10;64.50;;;;;;5016937;28;20776;-49
2021/08/31 02:49:00;;;;;;;9.47;8.67;;;22.10;64.60;;;;;;5018548;28;20285;-47
2021/08/31 02:51:25;;;;;;;9.90;8.87;;;22.20;64.40;;;;;;5011215;28;20213;-49
2021/08/31 02:53:51;;;;;;;11.90;8.60;;;22.20;64.20;;;;;;5015448;28;20194;-49
2021/08/31 02:56:16;;;;;;;10.10;9.10;;;22.30;64.10;;;;;;5013126;28;20193;-47
2021/08/31 02:58:42;;;;;;;8.87;8.07;;;22.20;63.40;;;;;;5013303;28;20240;-46
2021/08/31 03:03:52;;;;;;;10.10;8.17;;;22.10;63.40;;;;;;5023768;28;20343;-49
2021/08/31 03:06:17;;;;;;;9.97;8.97;;;22.00;63.50;;;;;;5015456;28;20534;-46
2021/08/31 03:08:43;;;;;;;9.87;8.97;;;22.00;63.50;;;;;;5022522;28;20190;-46
2021/08/31 03:11:08;;;;;;;10.83;9.80;;;22.00;63.50;;;;;;5018224;28;20653;-49
2021/08/31 03:13:34;;;;;;;10.83;9.13;;;22.00;64.00;;;;;;5021823;28;20200;-49
2021/08/31 03:16:00;;;;;;;10.13;9.07;;;21.90;64.10;;;;;;5024126;28;20242;-46
2021/08/31 03:18:25;;;;;;;10.07;9.07;;;22.00;64.50;;;;;;5026928;28;20251;-46
2021/08/31 03:20:51;;;;;;;11.20;10.20;;;22.00;64.50;;;;;;5013187;28;20182;-48
2021/08/31 03:23:16;;;;;;;10.63;9.63;;;21.90;64.10;;;;;;5016296;28;20613;-46
2021/08/31 03:25:42;;;;;;;9.93;8.93;;;21.90;64.50;;;;;;5022838;28;20211;-46
2021/08/31 03:28:08;;;;;;;11.93;10.83;;;21.90;64.30;;;;;;5029434;28;20629;-46
2021/08/31 03:30:33;;;;;;;11.80;10.63;;;21.80;64.30;;;;;;5025046;28;20256;-46
2021/08/31 03:32:59;;;;;;;11.17;10.17;;;21.70;64.40;;;;;;5018146;28;20202;-47
2021/08/31 03:35:24;;;;;;;12.73;9.63;;;21.70;64.80;;;;;;5018245;28;20657;-49
2021/08/31 03:37:50;;;;;;;12.23;11.00;;;21.70;65.00;;;;;;5032930;28;20201;-48
2021/08/31 03:40:15;;;;;;;12.70;11.40;;;21.60;65.50;;;;;;5021400;28;20193;-48
2021/08/31 03:42:41;;;;;;;11.70;9.63;;;21.60;65.50;;;;;;5014780;28;20687;-48
2021/08/31 03:45:07;;;;;;;14.53;11.10;;;21.60;66.10;;;;;;5019386;28;20224;-50
2021/08/31 03:47:33;;;;;;;8.07;7.27;;;21.60;65.30;;;;;;5019037;28;20280;-45
2021/08/31 03:49:59;;;;;;;15.63;11.60;;;21.60;65.70;;;;;;5022408;28;20539;-48
2021/08/31 03:52:24;;;;;;;12.83;10.63;;;21.70;66.00;;;;;;5018310;28;20246;-48
2021/08/31 03:54:50;;;;;;;13.53;10.33;;;21.70;65.80;;;;;;5015253;28;20186;-50
2021/08/31 03:57:15;;;;;;;11.30;10.30;;;21.70;65.50;;;;;;5020515;28;20194;-46
2021/08/31 03:59:41;;;;;;;12.13;10.13;;;21.80;65.40;;;;;;5029680;28;20225;-46
2021/08/31 04:02:08;;;;;;;12.37;10.80;;;21.80;65.10;;;;;;5017312;28;20205;-49
2021/08/31 04:04:33;;;;;;;8.03;7.30;;;21.80;65.10;;;;;;5028005;28;20221;-50
2021/08/31 04:06:59;;;;;;;11.73;10.47;;;21.80;65.00;;;;;;5027813;28;20537;-46
2021/08/31 04:09:25;;;;;;;12.50;11.30;;;21.80;65.30;;;;;;5020627;28;20197;-49
2021/08/31 04:11:50;;;;;;;13.03;11.53;;;21.80;65.20;;;;;;5028984;28;20783;-46
2021/08/31 04:14:16;;;;;;;10.93;9.80;;;21.90;65.30;;;;;;5021136;28;20221;-50
2021/08/31 04:16:42;;;;;;;12.20;10.13;;;21.80;64.90;;;;;;5024015;28;20243;-46
2021/08/31 04:19:07;;;;;;;12.60;11.43;;;21.90;65.00;;;;;;5016530;28;20473;-46
2021/08/31 04:21:33;;;;;;;11.43;10.23;;;21.90;65.10;;;;;;5025383;28;20272;-46
2021/08/31 04:23:59;;;;;;;12.57;11.33;;;21.90;64.70;;;;;;5021304;28;20284;-48
2021/08/31 04:26:24;;;;;;;12.80;11.60;;;21.90;64.50;;;;;;5016304;28;20756;-50
2021/08/31 04:28:50;;;;;;;13.43;11.53;;;21.90;64.30;;;;;;5028012;28;20193;-46
2021/08/31 04:31:18;;;;;;;13.20;11.90;;;21.80;64.10;;;;;;5023071;28;20194;-46
2021/08/31 04:33:43;;;;;;;11.90;10.80;;;21.70;64.40;;;;;;5017977;28;20193;-49
2021/08/31 04:36:09;;;;;;;12.10;11.00;;;21.70;64.80;;;;;;5021309;28;20474;-49
2021/08/31 04:38:35;;;;;;;11.70;10.60;;;21.70;65.00;;;;;;5016483;28;20445;-46
2021/08/31 04:41:00;;;;;;;14.43;10.73;;;21.70;64.80;;;;;;5020682;28;20196;-48
2021/08/31 04:43:27;;;;;;;12.07;10.77;;;21.70;64.80;;;;;;5018072;28;20732;-48
2021/08/31 04:45:52;;;;;;;10.43;9.33;;;21.70;64.80;;;;;;5021114;28;20237;-48
2021/08/31 04:48:18;;;;;;;10.63;8.10;;;21.70;65.10;;;;;;5023925;28;20499;-48
2021/08/31 04:50:44;;;;;;;14.20;11.27;;;21.70;65.40;;;;;;5019463;28;22165;-46
2021/08/31 04:53:10;;;;;;;13.97;11.03;;;21.80;65.50;;;;;;5018119;28;20190;-48
2021/08/31 04:55:35;;;;;;;11.53;10.43;;;21.80;65.80;;;;;;5024006;28;20202;-49
2021/08/31 04:58:01;;;;;;;15.57;10.53;;;21.80;65.00;;;;;;5019141;28;20668;-46
2021/08/31 05:00:27;;;;;;;11.10;9.40;;;21.80;64.70;;;;;;5015784;28;20962;-46
2021/08/31 05:02:55;;;;;;;10.07;9.17;;;21.80;64.90;;;;;;5013661;28;20236;-49
2021/08/31 05:05:21;;;;;;;11.60;10.40;;;21.80;64.60;;;;;;5023455;28;20655;-46
2021/08/31 05:07:47;;;;;;;10.57;6.77;;;21.80;64.60;;;;;;5019946;28;21037;-48
2021/08/31 05:10:12;;;;;;;11.80;10.57;;;21.80;64.80;;;;;;5018730;28;20582;-49
2021/08/31 05:12:38;;;;;;;11.43;10.43;;;21.90;65.10;;;;;;5018410;28;20655;-50
2021/08/31 05:15:04;;;;;;;11.90;10.23;;;21.90;64.40;;;;;;5019974;28;20226;-50
2021/08/31 05:17:30;;;;;;;10.93;9.90;;;21.90;64.30;;;;;;5022193;28;20247;-50
2021/08/31 05:19:56;;;;;;;9.00;8.10;;;21.90;64.10;;;;;;5028344;28;20444;-49
2021/08/31 05:22:22;;;;;;;17.67;7.00;;;21.80;63.90;;;;;;5025341;28;20204;-48
2021/08/31 05:24:48;;;;;;;12.07;10.67;;;21.80;65.50;;;;;;5028520;28;20487;-46
2021/08/31 05:27:14;;;;;;;9.63;8.57;;;21.80;65.60;;;;;;5023603;28;20185;-49
2021/08/31 05:29:40;;;;;;;10.47;9.57;;;21.80;65.10;;;;;;5028627;28;20494;-45
2021/08/31 05:32:06;;;;;;;10.60;9.03;;;21.90;64.50;;;;;;5021310;28;20268;-47
2021/08/31 05:34:31;;;;;;;9.37;8.47;;;21.90;64.30;;;;;;5016518;28;20225;-50
2021/08/31 05:36:57;;;;;;;9.30;8.40;;;21.90;64.20;;;;;;5014079;28;20543;-46
2021/08/31 05:39:24;;;;;;;8.97;8.07;;;22.00;64.10;;;;;;5011941;28;20642;-50
2021/08/31 05:41:50;;;;;;;9.37;8.20;;;22.00;63.80;;;;;;5016934;28;20189;-47
2021/08/31 05:44:15;;;;;;;11.60;9.73;;;22.00;63.60;;;;;;5012312;28;20491;-50
2021/08/31 05:46:41;;;;;;;10.30;9.37;;;22.10;63.30;;;;;;5017201;28;20197;-47
2021/08/31 05:49:06;;;;;;;8.10;7.30;;;22.10;63.20;;;;;;5022064;28;20330;-49
2021/08/31 05:51:32;;;;;;;9.87;8.97;;;22.10;63.10;;;;;;5022771;28;20987;-48
2021/08/31 05:53:57;;;;;;;10.10;8.90;;;22.00;62.70;;;;;;5026961;28;20617;-46
2021/08/31 05:56:23;;;;;;;10.60;8.90;;;22.00;63.10;;;;;;5020085;28;20190;-47
2021/08/31 05:58:49;;;;;;;12.13;9.03;;;21.90;62.90;;;;;;5024876;28;20208;-48
2021/08/31 06:01:15;;;;;;;10.80;9.37;;;21.90;63.20;;;;;;5017700;28;20198;-46
2021/08/31 06:03:40;;;;;;;9.03;8.10;;;21.80;63.50;;;;;;5023155;28;20237;-45
2021/08/31 06:06:06;;;;;;;9.53;8.63;;;21.80;64.00;;;;;;5015793;28;20693;-46
2021/08/31 06:08:33;;;;;;;11.50;9.20;;;21.70;63.80;;;;;;5014949;28;20193;-48
2021/08/31 06:10:59;;;;;;;10.60;9.17;;;21.70;64.00;;;;;;5022105;28;20189;-45
2021/08/31 06:13:24;;;;;;;9.83;8.90;;;21.70;64.00;;;;;;5022765;28;20451;-50
2021/08/31 06:15:50;;;;;;;9.10;8.20;;;21.70;64.30;;;;;;5020359;28;20676;-48
2021/08/31 06:18:15;;;;;;;10.10;9.03;;;21.70;63.90;;;;;;5020813;28;20241;-50
2021/08/31 06:20:41;;;;;;;9.63;8.10;;;21.50;65.00;;;;;;5014770;28;20272;-45
2021/08/31 06:23:06;;;;;;;8.77;7.97;;;21.50;64.50;;;;;;5025365;28;20232;-46
2021/08/31 06:25:33;;;;;;;9.10;8.10;;;21.50;64.70;;;;;;5012741;28;20201;-45
2021/08/31 06:27:58;;;;;;;8.83;7.93;;;21.50;65.10;;;;;;5023853;28;20193;-50
2021/08/31 06:30:24;;;;;;;10.73;8.10;;;21.50;65.20;;;;;;5022030;28;20944;-46
2021/08/31 06:32:49;;;;;;;9.13;8.33;;;21.60;65.20;;;;;;5025205;28;20198;-46
2021/08/31 06:35:15;;;;;;;8.90;8.00;;;21.70;65.30;;;;;;5015049;28;20545;-48
2021/08/31 06:37:41;;;;;;;9.00;8.10;;;21.70;65.20;;;;;;5015215;28;20220;-46
2021/08/31 06:40:07;;;;;;;11.37;8.90;;;21.80;65.10;;;;;;5016750;28;20233;-46
2021/08/31 06:42:32;;;;;;;8.90;8.10;;;21.90;65.30;;;;;;5020084;28;20198;-47
2021/08/31 06:44:58;;;;;;;8.87;7.37;;;21.90;64.70;;;;;;5021482;28;20494;-46
2021/08/31 06:47:24;;;;;;;11.73;9.00;;;22.00;64.60;;;;;;5020373;28;20284;-46
2021/08/31 06:49:50;;;;;;;11.63;9.43;;;22.00;64.90;;;;;;5029713;28;20649;-46
2021/08/31 06:52:15;;;;;;;8.93;8.13;;;22.10;65.80;;;;;;5018945;28;20232;-45
2021/08/31 06:54:41;;;;;;;9.67;8.77;;;22.10;65.00;;;;;;5017765;28;20900;-46
2021/08/31 06:57:06;;;;;;;9.90;8.90;;;22.20;65.00;;;;;;5022072;28;20245;-47
2021/08/31 06:59:33;;;;;;;12.93;9.30;;;22.10;64.80;;;;;;5026507;28;20190;-50
2021/08/31 07:01:59;;;;;;;11.00;9.60;;;22.10;64.90;;;;;;5026500;28;20596;-49
2021/08/31 07:04:24;;;;;;;10.47;9.30;;;22.10;64.90;;;;;;5020187;28;20583;-48
2021/08/31 07:06:50;;;;;;;10.40;9.40;;;21.90;64.60;;;;;;5024398;28;20279;-46
2021/08/31 07:09:16;;;;;;;10.83;9.10;;;21.90;64.90;;;;;;5018630;28;20197;-46
2021/08/31 07:11:41;;;;;;;11.90;9.70;;;21.90;65.10;;;;;;5027713;28;20276;-46
2021/08/31 07:14:07;;;;;;;10.07;8.80;;;21.90;65.50;;;;;;5021181;28;20796;-47
2021/08/31 07:16:32;;;;;;;12.63;9.50;;;22.00;65.30;;;;;;5025103;28;20906;-48
2021/08/31 07:18:58;;;;;;;9.37;8.57;;;22.00;64.90;;;;;;5020070;28;20242;-46
2021/08/31 07:21:23;;;;;;;8.60;7.80;;;22.10;64.80;;;;;;5024279;28;20197;-46
2021/08/31 07:23:49;;;;;;;10.00;9.10;;;22.10;64.60;;;;;;5024120;28;20225;-47
2021/08/31 07:26:15;;;;;;;9.80;8.67;;;22.20;64.70;;;;;;5023701;28;20666;-46
2021/08/31 07:28:40;;;;;;;10.07;8.83;;;22.20;64.70;;;;;;5022863;28;20194;-46
2021/08/31 07:31:06;;;;;;;10.93;9.93;;;22.30;64.80;;;;;;5020268;28;20271;-46
2021/08/31 07:33:31;;;;;;;10.97;8.80;;;22.30;64.50;;;;;;5020732;28;20205;-47
2021/08/31 07:35:57;;;;;;;11.90;9.73;;;22.10;64.10;;;;;;5026197;28;20190;-47
2021/08/31 07:38:23;;;;;;;9.60;8.80;;;22.20;64.40;;;;;;5028432;28;20281;-46
2021/08/31 07:40:48;;;;;;;10.63;9.63;;;22.10;65.30;;;;;;5026872;28;20194;-46
2021/08/31 07:43:14;;;;;;;10.57;9.47;;;22.00;65.30;;;;;;5014995;28;20218;-46
2021/08/31 07:45:40;;;;;;;11.80;9.40;;;22.00;65.20;;;;;;5041085;28;20624;-47
2021/08/31 07:48:06;;;;;;;10.07;9.07;;;22.10;65.00;;;;;;5029657;28;20566;-45
2021/08/31 07:50:32;;;;;;;11.70;9.87;;;22.10;65.00;;;;;;5026841;28;20193;-46
2021/08/31 07:52:58;;;;;;;11.60;8.80;;;22.00;65.20;;;;;;5029073;28;20464;-47
2021/08/31 07:55:23;;;;;;;10.20;9.00;;;21.90;65.60;;;;;;5024453;28;20185;-54
2021/08/31 07:57:49;;;;;;;9.80;8.90;;;21.90;66.00;;;;;;5022763;28;20202;-50
2021/08/31 08:00:17;;;;;;;10.73;8.90;;;21.90;65.80;;;;;;5022633;28;20208;-50
2021/08/31 08:02:43;;;;;;;10.27;9.23;;;22.00;65.70;;;;;;5023049;28;20573;-50
2021/08/31 08:05:10;;;;;;;10.47;9.47;;;22.00;65.50;;;;;;5017882;28;20436;-49
2021/08/31 08:07:35;;;;;;;9.30;8.40;;;22.00;65.20;;;;;;5013763;28;21035;-49
2021/08/31 08:10:01;;;;;;;9.90;9.00;;;21.90;65.30;;;;;;5024365;28;20437;-48
2021/08/31 08:12:27;;;;;;;10.07;9.07;;;21.90;65.00;;;;;;5032568;28;20208;-47
2021/08/31 08:14:52;;;;;;;9.00;8.13;;;21.80;65.20;;;;;;5023877;28;20801;-47
2021/08/31 08:17:20;;;;;;;11.50;8.70;;;21.80;66.80;;;;;;5021475;28;20359;-46
2021/08/31 08:19:47;;;;;;;13.93;9.10;;;21.80;66.10;;;;;;5032455;28;20193;-50
2021/08/31 08:22:13;;;;;;;9.60;8.70;;;21.80;65.80;;;;;;5028418;28;20494;-47
2021/08/31 08:24:39;;;;;;;9.73;8.83;;;21.80;65.50;;;;;;5033022;28;20494;-46
2021/08/31 08:27:05;;;;;;;9.17;8.27;;;21.80;65.60;;;;;;5022270;28;20491;-46
2021/08/31 08:29:31;;;;;;;16.83;8.53;;;21.80;65.70;;;;;;5028894;28;20428;-46
2021/08/31 08:31:56;;;;;;;13.33;9.60;;;21.80;65.70;;;;;;5022835;28;20464;-47
2021/08/31 08:34:23;;;;;;;9.80;8.90;;;21.80;65.60;;;;;;5031120;28;20197;-48
2021/08/31 08:36:49;;;;;;;7.97;7.20;;;21.80;65.90;;;;;;5020674;28;20239;-46
2021/08/31 08:39:15;;;;;;;9.57;8.60;;;21.80;66.20;;;;;;5031030;28;20436;-46
2021/08/31 08:41:41;;;;;;;12.60;9.10;;;21.90;66.40;;;;;;5026082;28;20444;-47
2021/08/31 08:44:07;;;;;;;9.77;8.07;;;22.00;66.00;;;;;;5026937;28;20589;-46
2021/08/31 08:46:33;;;;;;;8.83;7.93;;;22.10;65.70;;;;;;5033781;28;20437;-46
2021/08/31 08:48:59;;;;;;;7.93;7.07;;;22.20;65.40;;;;;;5027620;28;20424;-47
2021/08/31 08:51:25;;;;;;;10.03;7.60;;;22.20;64.80;;;;;;5032529;28;20423;-46
2021/08/31 08:53:50;;;;;;;10.77;7.83;;;22.20;65.20;;;;;;5031039;28;20197;-47
2021/08/31 08:56:17;;;;;;;9.90;7.67;;;22.40;64.90;;;;;;5018277;28;20280;-46
2021/08/31 08:58:43;;;;;;;8.13;7.33;;;22.40;64.60;;;;;;5015712;28;20206;-46
2021/08/31 09:01:13;;;;;;;8.20;7.30;;;22.50;63.70;;;;;;5015228;28;20865;-46
2021/08/31 09:03:50;;;;;;;7.47;6.87;;;22.50;63.60;;;;;;5024499;28;20228;-45
2021/08/31 09:06:18;;;;;;;6.90;6.30;;;22.40;63.00;;;;;;5025037;28;20428;-46
2021/08/31 09:08:55;;;;;;;7.63;6.93;;;22.50;62.70;;;;;;5016669;28;20946;-46
2021/08/31 09:11:30;;;;;;;7.33;6.73;;;22.50;62.90;;;;;;5015156;28;20463;-47
2021/08/31 09:14:15;;;;;;;8.50;7.80;;;22.50;62.50;;;;;;5013544;28;20432;-46
2021/08/31 09:16:41;;;;;;;7.20;6.60;;;22.60;62.50;;;;;;5024083;28;20436;-46
2021/08/31 09:19:07;;;;;;;8.10;7.40;;;22.70;62.30;;;;;;5027274;28;20472;-47
2021/08/31 09:21:33;;;;;;;13.87;7.00;;;22.50;62.20;;;;;;5021554;28;20444;-46
2021/08/31 09:24:00;;;;;;;6.70;6.10;;;22.50;62.20;;;;;;5026403;28;20217;-45
2021/08/31 09:26:36;;;;;;;8.90;6.30;;;22.60;62.20;;;;;;5020221;28;20235;-46
2021/08/31 09:29:15;;;;;;;8.43;6.53;;;22.60;61.80;;;;;;5019480;28;20920;-45
2021/08/31 09:31:58;;;;;;;6.77;6.23;;;22.60;61.60;;;;;;5022223;28;20428;-51
2021/08/31 09:34:35;;;;;;;8.30;6.60;;;22.50;60.70;;;;;;5031024;28;20440;-45
2021/08/31 09:37:33;;;;;;;8.30;7.07;;;22.60;61.10;;;;;;5025390;28;20816;-44
2021/08/31 09:40:19;;;;;;;6.83;6.23;;;22.70;61.30;;;;;;5017203;28;21026;-45
2021/08/31 09:42:54;;;;;;;7.30;6.60;;;22.70;61.10;;;;;;5022767;28;20448;-46
2021/08/31 09:45:25;;;;;;;12.93;7.40;;;22.60;61.30;;;;;;5021694;28;20534;-48
2021/08/31 09:47:52;;;;;;;7.83;7.10;;;22.60;61.20;;;;;;5021574;28;20476;-46
2021/08/31 09:50:41;;;;;;;7.67;6.87;;;22.60;60.80;;;;;;5029424;28;20780;-45
2021/08/31 09:53:14;;;;;;;7.57;6.87;;;22.60;61.00;;;;;;5031334;28;20486;-46
2021/08/31 09:55:42;;;;;;;7.23;6.50;;;22.60;60.70;;;;;;5031486;28;20428;-45
2021/08/31 09:58:24;;;;;;;6.77;6.17;;;22.60;60.70;;;;;;5031027;28;20526;-47
2021/08/31 10:00:52;;;;;;;7.80;7.03;;;22.60;60.00;;;;;;5031024;28;20535;-45
2021/08/31 10:03:19;;;;;;;7.10;6.50;;;22.60;60.00;;;;;;5030809;28;20893;-45
2021/08/31 10:05:47;;;;;;;6.67;5.80;;;22.60;60.10;;;;;;5031729;28;20876;-45
2021/08/31 10:08:14;;;;;;;8.80;6.40;;;22.70;59.80;;;;;;5030792;28;20478;-45
2021/08/31 10:10:42;;;;;;;7.23;6.50;;;22.80;59.50;;;;;;5030944;28;20420;-44
2021/08/31 10:13:13;;;;;;;9.17;5.73;;;22.70;60.10;;;;;;5031040;28;20917;-45
2021/08/31 10:15:43;;;;;;;5.80;5.30;;;22.80;59.80;;;;;;5031169;28;20427;-46
2021/08/31 10:18:09;;;;;;;6.47;5.57;;;22.80;59.60;;;;;;5028866;28;20499;-45
2021/08/31 10:20:41;;;;;;;6.23;5.60;;;22.80;59.90;;;;;;5030774;28;20464;-45
2021/08/31 10:23:08;;;;;;;7.43;5.47;;;22.80;59.60;;;;;;5030584;28;20685;-45
2021/08/31 10:25:33;;;;;;;7.37;6.10;;;22.90;59.60;;;;;;5031276;28;20456;-45
2021/08/31 10:28:00;;;;;;;6.20;5.70;;;22.90;59.30;;;;;;5030336;28;20467;-44
2021/08/31 10:30:29;;;;;;;6.80;6.20;;;22.80;59.50;;;;;;5026514;28;20218;-46
2021/08/31 10:33:02;;;;;;;6.90;6.30;;;22.90;59.70;;;;;;5031713;28;20478;-45
2021/08/31 10:38:02;;;;;;;5.87;5.37;;;23.20;59.20;;;;;;5034571;28;20766;-44
2021/08/31 10:40:39;;;;;;;5.90;5.40;;;23.20;58.90;;;;;;5034780;28;20432;-45
2021/08/31 10:43:06;;;;;;;6.07;5.47;;;23.20;58.60;;;;;;5032781;28;20467;-45
2021/08/31 10:45:37;;;;;;;5.90;5.30;;;23.30;58.20;;;;;;5034915;28;20434;-50
2021/08/31 10:48:23;;;;;;;6.20;5.70;;;23.20;58.60;;;;;;5034401;28;20460;-49
2021/08/31 10:50:50;;;;;;;6.00;5.50;;;23.30;58.50;;;;;;5025119;28;20805;-49
2021/08/31 10:53:41;;;;;;;5.73;5.20;;;23.30;57.90;;;;;;5024325;28;20456;-50
2021/08/31 10:56:22;;;;;;;7.17;5.67;;;23.30;57.60;;;;;;5024637;28;20570;-50
2021/08/31 10:58:56;;;;;;;6.40;5.70;;;23.40;57.80;;;;;;5024400;28;21113;-49
2021/08/31 11:01:48;;;;;;;6.77;6.10;;;23.50;57.30;;;;;;5037481;28;20455;-50
2021/08/31 11:04:31;;;;;;;6.30;5.80;;;23.60;58.00;;;;;;5023360;28;20548;-49
2021/08/31 11:06:58;;;;;;;6.40;5.90;;;23.80;58.00;;;;;;5024272;28;20443;-50
2021/08/31 11:09:25;;;;;;;6.60;6.07;;;23.90;57.40;;;;;;5034467;28;20432;-49
2021/08/31 11:12:11;;;;;;;6.90;5.30;;;23.90;56.80;;;;;;5025310;28;20497;-48
2021/08/31 11:14:41;;;;;;;6.70;6.13;;;24.00;57.40;;;;;;5016617;28;20521;-49
2021/08/31 11:17:07;;;;;;;6.60;6.07;;;24.10;57.50;;;;;;5029391;28;20580;-49
2021/08/31 11:19:33;;;;;;;5.73;5.13;;;24.20;58.30;;;;;;5031635;28;20443;-46
2021/08/31 11:21:58;;;;;;;5.63;5.17;;;24.40;56.40;;;;;;5032084;28;20990;-45
2021/08/31 11:24:26;;;;;;;5.37;4.90;;;24.50;55.30;;;;;;5021949;28;20247;-50
2021/08/31 11:26:59;;;;;;;5.70;5.20;;;24.60;55.70;;;;;;5029506;28;20255;-50
2021/08/31 11:29:25;;;;;;;5.40;4.90;;;24.70;56.10;;;;;;5026887;28;20535;-49
2021/08/31 11:32:00;;;;;;;4.93;4.53;;;24.80;55.80;;;;;;5024594;28;20511;-46
2021/08/31 11:34:25;;;;;;;6.40;5.40;;;25.00;56.00;;;;;;5026304;28;20192;-46
2021/08/31 11:37:02;;;;;;;5.77;4.83;;;25.00;55.30;;;;;;5029481;28;20424;-48
2021/08/31 11:39:28;;;;;;;7.07;5.23;;;25.00;55.80;;;;;;5020289;28;20656;-46
2021/08/31 11:41:53;;;;;;;5.80;5.10;;;25.00;55.40;;;;;;5024139;28;20531;-48
2021/08/31 11:44:21;;;;;;;5.90;5.20;;;25.10;54.70;;;;;;5037463;28;20680;-47
2021/08/31 11:46:55;;;;;;;5.17;4.67;;;25.20;55.20;;;;;;5042588;28;20196;-46
2021/08/31 11:49:26;;;;;;;6.03;5.43;;;25.20;54.90;;;;;;5041231;28;20460;-49
2021/08/31 11:51:59;;;;;;;5.80;5.20;;;25.20;55.20;;;;;;5025616;28;20772;-47
2021/08/31 11:54:26;;;;;;;6.27;5.60;;;25.40;55.50;;;;;;5033938;28;20472;-47
2021/08/31 11:56:58;;;;;;;5.60;5.20;;;25.40;54.30;;;;;;5026351;28;20440;-49
2021/08/31 11:59:34;;;;;;;4.80;4.40;;;25.30;53.70;;;;;;5016879;28;20527;-45
2021/08/31 12:02:21;;;;;;;7.00;5.00;;;25.40;54.10;;;;;;5030521;28;20473;-47
2021/08/31 12:04:58;;;;;;;6.10;5.60;;;25.50;54.10;;;;;;5018359;28;20480;-45
2021/08/31 12:07:47;;;;;;;5.17;4.77;;;25.60;53.40;;;;;;5018538;28;20523;-48
2021/08/31 12:10:25;;;;;;;6.40;5.30;;;25.60;53.40;;;;;;5025427;28;20454;-50
2021/08/31 12:12:51;;;;;;;6.90;5.37;;;25.60;54.00;;;;;;5025995;28;20439;-48
2021/08/31 12:15:22;;;;;;;5.97;4.60;;;25.50;53.20;;;;;;5030475;28;20521;-49
2021/08/31 12:18:03;;;;;;;5.83;5.30;;;25.60;53.90;;;;;;5025504;28;20468;-50
2021/08/31 12:20:28;;;;;;;6.40;5.80;;;25.40;53.60;;;;;;5031551;28;20443;-46
2021/08/31 12:23:01;;;;;;;8.27;6.10;;;25.40;53.70;;;;;;5028933;28;20428;-49
2021/08/31 12:25:38;;;;;;;5.80;4.90;;;25.40;53.60;;;;;;5020913;28;20193;-47
2021/08/31 12:28:04;;;;;;;5.20;4.70;;;25.40;53.80;;;;;;5028908;28;20800;-48
2021/08/31 12:30:39;;;;;;;7.20;5.30;;;25.50;54.10;;;;;;5017101;28;20448;-47
2021/08/31 12:33:05;;;;;;;9.50;4.97;;;25.40;53.60;;;;;;5030589;28;20438;-46
2021/08/31 12:35:42;;;;;;;5.60;4.60;;;25.50;53.80;;;;;;5026064;28;20454;-47
2021/08/31 12:38:08;;;;;;;5.47;4.63;;;25.50;53.50;;;;;;5022329;28;20505;-45
2021/08/31 12:40:36;;;;;;;5.83;5.33;;;25.50;53.30;;;;;;5037522;28;20466;-45
2021/08/31 12:43:08;;;;;;;5.50;4.83;;;25.60;53.20;;;;;;5037663;28;20252;-45
2021/08/31 12:45:34;;;;;;;5.97;5.43;;;25.70;53.20;;;;;;5031380;28;20808;-46
2021/08/31 12:48:01;;;;;;;8.10;4.97;;;25.60;52.90;;;;;;5028342;28;20976;-48